Time;durP1;ratioP1;P1;durP2;ratioP2;P2;SDS_P1;SDS_P2;PMS_P1;PMS_P2;Temp;Humidity;BMP_temperature;BMP_pressure;BME280_temperature;BME280_humidity;BME280_pressure;Samples;Min_cycle;Max_cycle;Signal;HPM_P1;HPM_P2
2022/09/07 00:00:57;;;;;;;8.02;2.60;;;;;;;16.31;47.99;100426.09;10290672;28;20034;-67
2022/09/07 00:05:58;;;;;;;4.88;3.03;;;;;;;16.04;49.54;100424.38;10290842;28;20047;-67
2022/09/07 00:11:05;;;;;;;12.63;2.63;;;;;;;16.06;48.44;100451.78;10291765;28;20053;-67
2022/09/07 00:16:11;;;;;;;5.68;2.25;;;;;;;15.73;48.98;100414.97;10291370;28;20134;-67
2022/09/07 00:21:13;;;;;;;7.28;2.30;;;;;;;15.90;48.96;100456.47;10293097;28;20419;-67
2022/09/07 00:26:20;;;;;;;5.18;2.15;;;;;;;15.80;48.19;100444.47;10298026;28;20045;-67
2022/09/07 00:31:22;;;;;;;6.32;1.92;;;;;;;15.59;48.49;100421.28;10297924;28;20070;-67
2022/09/07 00:36:23;;;;;;;3.70;1.98;;;;;;;15.54;48.91;100424.53;10298679;28;20070;-67
2022/09/07 00:41:24;;;;;;;7.35;2.40;;;;;;;15.51;49.81;100432.97;10298291;28;20406;-69
2022/09/07 00:46:27;;;;;;;7.40;2.15;;;;;;;15.10;50.25;100377.56;10298023;28;20570;-67
2022/09/07 00:51:48;;;;;;;10.10;1.93;;;;;;;15.29;50.13;100418.88;10297204;28;20546;-67
2022/09/07 00:56:51;;;;;;;7.90;2.72;;;;;;;15.18;50.27;100409.53;10296929;28;20392;-67
2022/09/07 01:01:52;;;;;;;7.32;2.55;;;;;;;15.46;50.23;100444.25;10297924;28;20054;-67
2022/09/07 01:06:54;;;;;;;10.52;3.75;;;;;;;14.97;50.19;100388.19;10297745;28;20038;-67
2022/09/07 01:11:57;;;;;;;17.13;5.53;;;;;;;15.36;50.88;100459.03;10296987;28;20043;-68
2022/09/07 01:17:22;;;;;;;20.40;6.63;;;;;;;15.32;51.13;100461.28;10297352;28;20043;-67
2022/09/07 01:22:47;;;;;;;19.25;6.28;;;;;;;14.74;51.13;100385.75;10296617;28;20094;-67
2022/09/07 01:28:00;;;;;;;16.20;5.32;;;;;;;15.08;50.93;100454.53;10296437;28;20039;-67
2022/09/07 01:33:07;;;;;;;20.35;5.30;;;;;;;15.00;50.26;100455.50;10295436;28;20538;-67
2022/09/07 01:38:22;;;;;;;28.17;4.88;;;;;;;15.02;51.45;100456.13;10295725;28;20051;-67
2022/09/07 01:43:53;;;;;;;14.85;3.85;;;;;;;14.99;52.55;100450.34;10294925;28;20054;-67
2022/09/07 01:49:18;;;;;;;48.00;4.13;;;;;;;15.00;52.41;100460.84;10256364;28;20150;-67
2022/09/07 01:54:31;;;;;;;12.93;3.30;;;;;;;14.41;52.34;100386.28;10234970;28;20101;-67
2022/09/07 01:59:39;;;;;;;6.22;2.42;;;;;;;14.78;51.08;100459.25;10255295;28;20051;-67
2022/09/07 02:04:51;;;;;;;6.78;2.60;;;;;;;14.62;52.41;100454.97;10255293;28;20126;-68
2022/09/07 02:09:59;;;;;;;86.20;7.05;;;;;;;13.93;54.27;100378.00;10254798;28;20071;-67
2022/09/07 02:15:06;;;;;;;66.32;5.63;;;;;;;14.06;54.59;100441.41;10254817;28;20043;-67
2022/09/07 02:20:30;;;;;;;14.07;2.60;;;;;;;13.99;53.46;100454.69;10252949;29;20472;-67
2022/09/07 02:25:37;;;;;;;12.95;3.00;;;;;;;13.62;54.24;100448.50;10255103;28;20396;-67
2022/09/07 02:30:38;;;;;;;13.73;3.92;;;;;;;13.09;54.69;100386.34;10254452;28;20504;-67
2022/09/07 02:35:39;;;;;;;22.70;4.82;;;;;;;13.47;55.36;100466.34;10253535;28;20139;-67
2022/09/07 02:40:40;;;;;;;17.67;4.35;;;;;;;13.36;55.96;100462.28;10253796;28;20042;-67
2022/09/07 02:45:54;;;;;;;14.98;4.35;;;;;;;12.93;57.31;100405.19;10272020;28;20523;-67
2022/09/07 02:51:24;;;;;;;34.20;7.88;;;;;;;13.06;59.24;100413.38;10291354;28;20051;-68
2022/09/07 02:56:36;;;;;;;38.78;9.35;;;;;;;13.54;56.83;100480.59;10290742;28;20046;-68
2022/09/07 03:01:55;;;;;;;33.78;5.25;;;;;;;13.78;57.42;100500.03;10290394;28;20039;-67
2022/09/07 03:07:06;;;;;;;64.00;8.90;;;;;;;13.82;56.99;100455.91;10291904;28;20090;-67
2022/09/07 03:12:08;;;;;;;126.97;12.25;;;;;;;14.26;57.82;100506.56;10292597;28;20050;-67
2022/09/07 03:17:09;;;;;;;23.13;6.63;;;;;;;14.30;56.30;100453.63;10292821;28;20082;-67
2022/09/07 03:22:10;;;;;;;26.23;5.97;;;;;;;14.94;54.95;100530.34;10293259;28;20487;-67
2022/09/07 03:27:10;;;;;;;8.73;2.95;;;;;;;14.93;53.92;100505.44;10291480;28;20054;-67
2022/09/07 03:32:11;;;;;;;47.08;4.68;;;;;;;14.53;54.26;100432.06;10291086;28;20035;-67
2022/09/07 03:37:12;;;;;;;13.07;2.47;;;;;;;14.76;53.00;100458.59;10291283;28;20074;-68
2022/09/07 03:42:13;;;;;;;9.63;2.30;;;;;;;15.22;52.78;100527.69;10291898;28;20410;-67
2022/09/07 03:47:14;;;;;;;14.52;2.97;;;;;;;14.88;53.52;100466.94;10291572;28;20035;-68
2022/09/07 03:52:15;;;;;;;10.77;2.33;;;;;;;15.27;53.12;100546.69;10268283;28;21254;-67
2022/09/07 03:57:16;;;;;;;41.13;4.03;;;;;;;15.30;53.08;100538.28;10295809;28;20125;-68
2022/09/07 04:02:17;;;;;;;15.77;2.90;;;;;;;15.42;52.47;100546.59;10299590;28;20043;-69
2022/09/07 04:07:17;;;;;;;14.27;3.03;;;;;;;15.39;50.63;100533.59;10299290;28;20066;-68
2022/09/07 04:12:18;;;;;;;15.18;2.78;;;;;;;15.52;49.96;100561.31;10297260;28;20081;-69
2022/09/07 04:17:19;;;;;;;10.48;2.72;;;;;;;15.53;49.25;100568.31;10298954;28;20043;-68
2022/09/07 04:22:20;;;;;;;17.33;2.92;;;;;;;15.51;48.99;100545.41;10298694;28;20035;-69
2022/09/07 04:27:20;;;;;;;29.55;3.80;;;;;;;15.68;48.33;100554.84;10297986;28;20042;-68
2022/09/07 04:32:21;;;;;;;15.27;2.97;;;;;;;15.74;47.88;100569.31;10297625;28;20561;-68
2022/09/07 04:37:22;;;;;;;15.82;3.47;;;;;;;15.78;47.77;100572.41;10298315;28;20053;-71
2022/09/07 04:42:23;;;;;;;15.73;2.97;;;;;;;15.33;47.34;100496.91;10297683;28;20069;-69
2022/09/07 04:47:24;;;;;;;31.83;3.53;;;;;;;15.92;47.75;100566.13;10296018;28;20131;-68
2022/09/07 04:52:25;;;;;;;9.85;2.03;;;;;;;15.74;47.04;100515.75;10297565;28;20086;-68
2022/09/07 04:57:25;;;;;;;17.95;2.50;;;;;;;16.32;47.30;100582.38;10296866;28;20054;-68
2022/09/07 05:02:26;;;;;;;6.65;1.90;;;;;;;16.04;47.22;100526.19;10294787;28;20035;-73
2022/09/07 05:07:27;;;;;;;4.45;1.30;;;;;;;16.50;46.81;100584.53;10296474;28;20045;-68
2022/09/07 05:12:28;;;;;;;9.93;1.92;;;;;;;16.56;46.81;100573.81;10295816;28;20046;-69
2022/09/07 05:17:29;;;;;;;24.42;2.30;;;;;;;16.22;47.24;100499.66;10296258;28;20159;-69
2022/09/07 05:22:30;;;;;;;14.93;2.33;;;;;;;16.44;45.28;100525.28;10296033;28;20043;-69
2022/09/07 05:27:31;;;;;;;11.00;2.58;;;;;;;16.84;44.63;100571.03;10296914;28;20042;-68
2022/09/07 05:32:32;;;;;;;14.80;2.97;;;;;;;16.64;43.93;100559.41;10295584;28;20093;-68
2022/09/07 05:37:33;;;;;;;12.70;3.47;;;;;;;16.65;43.84;100544.94;10295508;28;20097;-69
2022/09/07 05:42:36;;;;;;;15.43;3.63;;;;;;;17.16;43.15;100600.81;10294131;28;20057;-69
2022/09/07 05:47:38;;;;;;;18.75;4.50;;;;;;;16.89;43.13;100528.31;10295905;28;20035;-69
2022/09/07 05:52:38;;;;;;;19.08;2.65;;;;;;;17.46;42.68;100606.59;10295012;28;20074;-69
2022/09/07 05:57:39;;;;;;;16.98;2.70;;;;;;;17.60;42.42;100606.59;10295185;28;20554;-69
2022/09/07 06:02:40;;;;;;;16.08;2.28;;;;;;;17.52;42.25;100586.16;10295224;28;20046;-69
2022/09/07 06:07:41;;;;;;;23.48;2.15;;;;;;;17.66;42.21;100617.34;10294503;28;20129;-72
2022/09/07 06:12:45;;;;;;;24.23;2.35;;;;;;;17.29;41.62;100551.66;10295275;28;20046;-68
2022/09/07 06:17:45;;;;;;;;;;;;;;;17.98;41.86;100625.63;10294647;28;20050;-68
2022/09/07 06:22:46;;;;;;;11.48;1.77;;;;;;;18.02;41.72;100634.91;10294360;28;19925;-69
2022/09/07 06:27:48;;;;;;;18.27;2.28;;;;;;;18.16;40.99;100641.91;10294279;28;20042;-68
2022/09/07 06:32:48;;;;;;;17.92;2.40;;;;;;;18.32;41.01;100642.47;10294680;28;20070;-69
2022/09/07 06:37:49;;;;;;;11.05;1.73;;;;;;;18.36;40.61;100627.56;10293124;28;20533;-68
2022/09/07 06:42:50;;;;;;;38.08;3.03;;;;;;;18.95;39.97;100637.25;10292537;28;20038;-70
2022/09/07 06:47:53;;;;;;;27.30;3.35;;;;;;;19.47;39.00;100637.13;10293287;28;20035;-69
2022/09/07 06:52:54;;;;;;;14.87;2.70;;;;;;;19.87;38.03;100624.16;10292035;28;20097;-70
2022/09/07 06:57:55;;;;;;;15.30;2.92;;;;;;;20.09;37.25;100626.44;10292950;28;20090;-70
2022/09/07 07:02:55;;;;;;;17.77;3.28;;;;;;;20.36;37.06;100621.56;10292907;28;20451;-69
2022/09/07 07:07:56;;;;;;;10.65;2.90;;;;;;;20.45;36.29;100604.81;10291446;28;20084;-71
2022/09/07 07:12:57;;;;;;;12.77;2.63;;;;;;;20.46;36.11;100584.06;10292619;28;20539;-71
2022/09/07 07:17:58;;;;;;;20.67;3.03;;;;;;;20.82;35.83;100614.75;10291933;28;20057;-70
2022/09/07 07:22:59;;;;;;;31.88;2.60;;;;;;;20.84;35.32;100601.88;10292765;28;20526;-70
2022/09/07 07:28:00;;;;;;;10.95;2.20;;;;;;;21.27;34.57;100622.41;10291610;28;20039;-69
2022/09/07 07:33:03;;;;;;;25.48;3.70;;;;;;;21.64;34.82;100639.31;10291177;28;20419;-69
2022/09/07 07:38:04;;;;;;;7.38;1.88;;;;;;;21.53;33.66;100642.81;10292367;28;20403;-70
2022/09/07 07:43:05;;;;;;;9.32;1.88;;;;;;;21.37;33.17;100636.22;10291751;28;20526;-69
2022/09/07 07:48:06;;;;;;;10.30;2.30;;;;;;;21.33;33.26;100618.78;10291056;28;20066;-70
2022/09/07 07:53:07;;;;;;;13.18;1.50;;;;;;;21.46;32.92;100626.72;10291539;28;20054;-68
2022/09/07 07:58:07;;;;;;;6.78;2.00;;;;;;;21.24;32.68;100629.13;10291644;28;20144;-68
2022/09/07 08:03:08;;;;;;;6.43;2.00;;;;;;;20.95;32.68;100606.50;10290759;28;20495;-72
2022/09/07 08:08:10;;;;;;;8.65;1.58;;;;;;;20.84;32.79;100612.66;10290633;28;20054;-68
2022/09/07 08:13:11;;;;;;;10.70;1.70;;;;;;;20.86;32.78;100616.78;10291196;28;20126;-70
2022/09/07 08:18:14;;;;;;;8.60;2.05;;;;;;;20.87;32.67;100625.72;10290456;28;20047;-72
2022/09/07 08:23:15;;;;;;;11.77;2.10;;;;;;;20.94;32.75;100610.25;10291300;28;20046;-69
2022/09/07 08:28:16;;;;;;;8.20;2.28;;;;;;;21.10;32.27;100617.69;10290934;28;20045;-71
2022/09/07 08:33:17;;;;;;;21.48;2.08;;;;;;;21.05;32.35;100619.44;10290377;28;20396;-72
2022/09/07 08:38:18;;;;;;;26.88;5.82;;;;;;;20.97;32.39;100617.91;10290213;28;20050;-69
2022/09/07 08:43:37;;;;;;;36.40;15.65;;;;;;;20.40;32.33;100537.25;10294575;28;20099;-68
2022/09/07 08:48:39;;;;;;;18.20;5.15;;;;;;;20.83;32.83;100617.25;10297593;28;20504;-70
2022/09/07 08:53:47;;;;;;;13.52;4.57;;;;;;;20.87;32.62;100599.53;10297762;28;20462;-69
2022/09/07 08:58:52;;;;;;;25.40;9.02;;;;;;;21.11;32.24;100603.13;10296943;28;20097;-70
2022/09/07 09:03:53;;;;;;;21.75;4.57;;;;;;;21.19;32.67;100604.69;10297430;28;20042;-68
2022/09/07 09:09:24;;;;;;;22.63;8.68;;;;;;;21.26;31.63;100613.50;10297242;28;20048;-71
2022/09/07 09:14:32;;;;;;;17.42;3.58;;;;;;;21.23;31.27;100599.63;10296524;28;20066;-70
2022/09/07 09:19:54;;;;;;;13.02;2.90;;;;;;;21.37;31.01;100623.53;10296948;28;20605;-70
2022/09/07 09:25:04;;;;;;;21.27;5.68;;;;;;;21.33;31.97;100627.72;10296652;28;20039;-69
2022/09/07 09:30:15;;;;;;;11.85;2.20;;;;;;;21.47;31.33;100622.13;10295402;28;20106;-70
2022/09/07 09:35:27;;;;;;;16.90;2.88;;;;;;;21.53;31.83;100621.19;10296562;28;20059;-67
2022/09/07 09:40:33;;;;;;;11.77;2.38;;;;;;;21.75;30.56;100610.66;10296175;28;20054;-70
2022/09/07 09:45:41;;;;;;;10.68;3.92;;;;;;;22.27;30.50;100589.06;10295309;28;20065;-69
2022/09/07 09:50:48;;;;;;;15.60;3.65;;;;;;;22.75;29.71;100547.22;10296029;28;20089;-71
2022/09/07 09:55:51;;;;;;;12.45;2.88;;;;;;;23.66;29.28;100610.28;10294885;28;20038;-69
2022/09/07 10:01:06;;;;;;;11.77;2.33;;;;;;;23.57;28.82;100603.66;10295393;28;20081;-69
2022/09/07 10:06:15;;;;;;;21.25;3.65;;;;;;;23.19;29.29;100588.13;10294555;28;20285;-69
2022/09/07 10:11:15;;;;;;;10.45;2.35;;;;;;;22.93;30.05;100609.31;10294984;28;20550;-70
2022/09/07 10:16:16;;;;;;;18.05;3.17;;;;;;;22.73;29.58;100615.16;10294593;28;20109;-69
2022/09/07 10:21:26;;;;;;;14.27;3.40;;;;;;;22.47;29.59;100613.84;10294149;28;20054;-70
2022/09/07 10:26:37;;;;;;;7.88;2.25;;;;;;;22.49;29.80;100602.78;10294287;28;20042;-68
2022/09/07 10:31:47;;;;;;;11.40;2.90;;;;;;;22.50;29.26;100589.00;10293863;28;20050;-69
2022/09/07 10:37:01;;;;;;;10.88;3.35;;;;;;;22.39;29.77;100602.59;10294469;28;20062;-70
2022/09/07 10:42:08;;;;;;;10.27;2.35;;;;;;;22.20;30.37;100615.47;10293063;28;20038;-70
2022/09/07 10:47:32;;;;;;;13.50;2.15;;;;;;;22.06;30.57;100612.97;10292817;28;20043;-70
2022/09/07 10:52:41;;;;;;;18.45;2.22;;;;;;;22.12;30.49;100540.84;10293303;28;20041;-68
2022/09/07 10:58:29;;;;;;;8.48;1.80;;;;;;;23.51;29.00;100618.16;10293087;28;20055;-68
2022/09/07 11:03:41;;;;;;;14.43;2.67;;;;;;;23.33;28.95;100626.53;10274883;28;20130;-69
2022/09/07 11:09:03;;;;;;;10.23;2.00;;;;;;;23.21;29.18;100627.47;10293580;28;20130;-72
2022/09/07 11:14:13;;;;;;;25.38;3.42;;;;;;;22.88;29.59;100628.16;10292851;28;20043;-70
2022/09/07 11:19:19;;;;;;;14.70;3.42;;;;;;;22.88;29.54;100605.69;10291981;28;20047;-70
2022/09/07 11:24:32;;;;;;;14.98;2.20;;;;;;;23.34;29.14;100560.44;10292526;28;20054;-68
2022/09/07 11:29:44;;;;;;;13.10;3.30;;;;;;;24.27;28.18;100620.38;10292521;28;20407;-70
2022/09/07 11:35:02;;;;;;;12.30;2.50;;;;;;;24.12;28.47;100600.09;10292212;28;20058;-69
2022/09/07 11:40:26;;;;;;;12.15;4.00;;;;;;;23.28;28.84;100588.53;10292307;28;20054;-70
2022/09/07 11:45:44;;;;;;;14.68;3.65;;;;;;;23.01;29.35;100611.66;10292125;28;20491;-70
2022/09/07 11:50:51;;;;;;;10.75;3.60;;;;;;;23.20;29.76;100596.00;10291296;28;20049;-68
2022/09/07 11:56:01;;;;;;;10.35;2.33;;;;;;;23.37;29.66;100603.31;10291290;28;20407;-69
2022/09/07 12:01:21;;;;;;;18.92;2.63;;;;;;;23.73;28.60;100601.19;10291428;28;20048;-68
2022/09/07 12:06:59;;;;;;;27.67;3.40;;;;;;;23.77;28.30;100596.91;10291725;28;20039;-69
2022/09/07 12:12:16;;;;;;;23.60;3.28;;;;;;;23.01;28.88;100546.63;10291282;28;20203;-69
2022/09/07 12:17:22;;;;;;;14.02;4.45;;;;;;;23.09;30.45;100607.72;10294047;28;20137;-69
2022/09/07 12:22:23;;;;;;;15.15;3.13;;;;;;;23.30;29.19;100589.09;10296724;28;20050;-72
2022/09/07 12:27:25;;;;;;;11.38;2.63;;;;;;;23.26;28.57;100537.25;10299554;28;20074;-74
2022/09/07 12:32:47;;;;;;;31.10;2.70;;;;;;;23.72;28.63;100607.66;10282910;28;20051;-69
2022/09/07 12:37:48;;;;;;;20.97;3.53;;;;;;;23.08;29.47;100610.69;10283011;28;20058;-70
2022/09/07 12:42:49;;;;;;;17.15;3.50;;;;;;;22.78;30.07;100606.31;10274135;28;20054;-69
2022/09/07 12:47:58;;;;;;;6.03;2.25;;;;;;;22.93;28.76;100548.88;10270067;28;20043;-69
2022/09/07 12:53:26;;;;;;;16.92;3.38;;;;;;;23.30;28.99;100524.84;10281445;28;20035;-69
2022/09/07 12:58:30;;;;;;;4.78;2.00;;;;;;;23.94;28.82;100607.72;10276735;28;20116;-69
2022/09/07 13:03:31;;;;;;;;;;;;;;;24.40;28.71;100619.16;10290816;28;20628;-70
2022/09/07 13:08:37;;;;;;;13.63;2.50;;;;;;;23.83;29.00;100618.41;10282297;28;19926;-69
2022/09/07 13:13:38;;;;;;;24.88;3.15;;;;;;;23.40;29.28;100627.22;10292989;28;20117;-68
2022/09/07 13:18:42;;;;;;;17.70;2.58;;;;;;;22.53;28.79;100544.41;10289649;28;20046;-68
2022/09/07 13:24:04;;;;;;;10.57;2.13;;;;;;;22.67;29.20;100610.72;10291782;28;20125;-68
2022/09/07 13:29:13;;;;;;;6.93;1.47;;;;;;;22.77;28.40;100629.88;10276242;28;20086;-67
2022/09/07 13:34:32;;;;;;;11.52;1.92;;;;;;;23.19;28.92;100629.59;10279659;28;20059;-67
2022/09/07 13:39:41;;;;;;;13.23;1.95;;;;;;;23.17;28.24;100584.81;10275912;28;20101;-68
2022/09/07 13:44:49;;;;;;;12.70;2.20;;;;;;;22.74;28.37;100503.06;10287237;28;20049;-70
2022/09/07 13:50:21;;;;;;;6.03;1.55;;;;;;;23.41;28.05;100642.41;10292376;28;20054;-69
2022/09/07 13:55:58;;;;;;;12.20;2.40;;;;;;;23.01;28.48;100637.94;10272766;28;20049;-68
2022/09/07 14:01:05;;;;;;;17.95;2.33;;;;;;;22.67;28.62;100599.88;10253302;28;20060;-69
2022/09/07 14:06:21;;;;;;;10.18;2.03;;;;;;;22.62;28.29;100599.81;10270734;28;20086;-69
2022/09/07 14:11:24;;;;;;;22.98;3.03;;;;;;;22.75;29.31;100634.69;10270218;28;20129;-68
2022/09/07 14:16:25;;;;;;;17.02;1.73;;;;;;;22.41;29.33;100638.38;10269994;28;20049;-68
2022/09/07 14:21:25;;;;;;;48.83;3.35;;;;;;;21.96;29.40;100596.53;10253661;28;20054;-69
2022/09/07 14:26:28;;;;;;;11.30;2.50;;;;;;;22.06;29.71;100639.19;10253908;28;20050;-68
2022/09/07 14:31:29;;;;;;;16.75;2.40;;;;;;;21.98;30.11;100658.47;10253039;28;20039;-68
2022/09/07 14:36:33;;;;;;;17.23;2.70;;;;;;;21.76;30.82;100659.06;10251312;29;20065;-69
2022/09/07 14:41:37;;;;;;;35.38;3.35;;;;;;;21.58;30.60;100641.06;10253088;28;20176;-68
2022/09/07 14:46:39;;;;;;;;;;;;;;;21.70;29.99;100649.19;10253481;28;20049;-67
2022/09/07 14:51:43;;;;;;;20.52;2.97;;;;;;;20.97;30.48;100597.09;10253466;29;19918;-69
2022/09/07 14:56:57;;;;;;;;;;;;;;;21.37;30.38;100664.06;10253544;28;20047;-69
2022/09/07 15:02:17;;;;;;;21.33;2.53;;;;;;;21.07;30.37;100665.94;10253430;29;19922;-70
2022/09/07 15:07:48;;;;;;;16.65;2.10;;;;;;;20.87;30.63;100671.59;10251799;28;20043;-69
2022/09/07 15:12:55;;;;;;;14.00;2.97;;;;;;;20.20;31.54;100606.81;10240111;29;20419;-69
2022/09/07 15:17:59;;;;;;;27.27;3.53;;;;;;;20.47;31.33;100685.56;10252597;28;20046;-69
2022/09/07 15:23:03;;;;;;;33.50;4.05;;;;;;;19.85;31.60;100599.28;10250760;28;20043;-70
2022/09/07 15:28:04;;;;;;;;;;;;;;;20.31;31.74;100689.66;10251633;28;20043;-69
2022/09/07 15:33:05;;;;;;;24.95;4.75;;;;;;;20.06;31.94;100681.63;10255658;28;19959;-70
2022/09/07 15:38:07;;;;;;;36.15;6.68;;;;;;;19.94;32.35;100695.00;10274375;28;20048;-69
2022/09/07 15:43:08;;;;;;;42.97;11.95;;;;;;;19.81;32.35;100705.94;10267479;28;20450;-68
2022/09/07 15:48:19;;;;;;;40.03;14.00;;;;;;;19.69;32.65;100697.72;10272242;28;20036;-69
2022/09/07 15:53:20;;;;;;;59.85;10.93;;;;;;;19.61;33.00;100711.44;10265614;28;20094;-71
2022/09/07 15:58:21;;;;;;;19.50;5.82;;;;;;;19.41;33.02;100706.16;10268967;28;20507;-71
2022/09/07 16:03:21;;;;;;;43.72;7.25;;;;;;;19.37;33.36;100715.72;10273753;28;20074;-69
2022/09/07 16:08:23;;;;;;;24.42;6.75;;;;;;;19.39;33.49;100735.22;10266518;28;20499;-69
2022/09/07 16:13:24;;;;;;;32.92;16.05;;;;;;;19.21;33.42;100724.34;10276086;28;20427;-70
2022/09/07 16:18:25;;;;;;;61.30;26.23;;;;;;;19.25;33.81;100745.22;10270533;28;20038;-70
2022/09/07 16:23:26;;;;;;;37.80;15.90;;;;;;;18.78;33.36;100680.00;10266136;28;20101;-71
2022/09/07 16:28:27;;;;;;;29.55;12.02;;;;;;;19.19;33.66;100764.13;10267859;28;20062;-69
2022/09/07 16:33:28;;;;;;;13.05;5.53;;;;;;;19.04;33.45;100749.06;10268054;28;20069;-69
2022/09/07 16:38:31;;;;;;;14.38;3.78;;;;;;;19.10;33.58;100768.91;10266787;28;20049;-69
2022/09/07 16:43:31;;;;;;;8.15;2.60;;;;;;;19.02;33.54;100764.59;10255143;28;21517;-72
2022/09/07 16:48:34;;;;;;;8.63;2.40;;;;;;;19.04;33.92;100778.66;10272077;28;20047;-72
2022/09/07 16:53:35;;;;;;;12.68;2.60;;;;;;;18.89;33.86;100778.09;10269489;28;20043;-70
2022/09/07 16:58:39;;;;;;;8.07;1.80;;;;;;;18.95;33.88;100793.41;10256645;28;20422;-70
2022/09/07 17:03:40;;;;;;;13.90;2.00;;;;;;;18.79;33.97;100775.88;10252305;28;20459;-69
2022/09/07 17:08:42;;;;;;;12.27;1.95;;;;;;;18.88;34.21;100806.06;10255047;29;20039;-68
2022/09/07 17:13:44;;;;;;;7.32;1.70;;;;;;;18.83;34.22;100800.50;10255852;29;20396;-70
2022/09/07 17:18:45;;;;;;;12.50;2.00;;;;;;;18.76;34.35;100808.59;10256720;28;20407;-71
2022/09/07 17:23:46;;;;;;;13.88;2.22;;;;;;;18.68;34.81;100806.91;10255104;28;20046;-69
2022/09/07 17:28:51;;;;;;;11.15;1.67;;;;;;;18.45;34.15;100785.00;10254543;28;20403;-71
2022/09/07 17:33:56;;;;;;;5.07;1.55;;;;;;;18.65;34.42;100814.56;10253449;28;20507;-70
2022/09/07 17:38:58;;;;;;;7.72;1.52;;;;;;;18.00;34.54;100714.91;10269612;28;20418;-71
2022/09/07 17:43:59;;;;;;;11.63;1.95;;;;;;;18.60;34.85;100815.19;10292679;28;20077;-73
2022/09/07 17:49:01;;;;;;;5.57;1.60;;;;;;;18.38;34.98;100794.94;10292646;28;20525;-71
2022/09/07 17:54:04;;;;;;;8.82;1.63;;;;;;;18.42;35.08;100806.94;10292549;28;20046;-74
2022/09/07 17:59:06;;;;;;;6.03;1.60;;;;;;;18.40;34.87;100809.03;10292244;28;20094;-69
2022/09/07 18:04:08;;;;;;;6.63;1.50;;;;;;;18.07;34.85;100761.47;10291683;28;20567;-73
2022/09/07 18:09:10;;;;;;;12.70;1.58;;;;;;;18.43;34.78;100820.19;10292123;28;20410;-70
2022/09/07 18:14:12;;;;;;;10.90;1.73;;;;;;;18.37;35.02;100829.09;10290927;28;20049;-71
2022/09/07 18:19:13;;;;;;;15.23;2.15;;;;;;;18.24;35.38;100827.22;10291199;28;20069;-69
2022/09/07 18:24:20;;;;;;;11.20;1.75;;;;;;;18.26;35.08;100832.41;10287217;28;20046;-69
2022/09/07 18:29:24;;;;;;;6.32;1.50;;;;;;;18.19;35.07;100823.50;10284266;28;20097;-70
2022/09/07 18:34:25;;;;;;;7.37;1.53;;;;;;;18.16;35.69;100822.06;10291759;28;20097;-69
2022/09/07 18:39:26;;;;;;;7.25;1.50;;;;;;;18.09;35.11;100807.75;10291409;28;20046;-71
2022/09/07 18:44:27;;;;;;;5.18;1.48;;;;;;;18.18;35.08;100827.22;10291041;28;20034;-72
2022/09/07 18:49:28;;;;;;;7.75;1.90;;;;;;;17.60;35.19;100730.19;10291381;28;20403;-71
2022/09/07 18:54:30;;;;;;;5.65;1.77;;;;;;;18.23;34.93;100825.56;10286896;28;20039;-69
2022/09/07 18:59:31;;;;;;;9.20;1.50;;;;;;;17.97;34.93;100787.91;10258655;28;20058;-70
2022/09/07 19:04:32;;;;;;;6.45;1.75;;;;;;;18.00;35.35;100806.31;10267333;28;20467;-69
2022/09/07 19:09:33;;;;;;;7.85;1.75;;;;;;;18.05;36.46;100835.28;10267376;28;20038;-69
2022/09/07 19:14:33;;;;;;;8.90;2.25;;;;;;;17.64;36.85;100794.03;10278132;28;20556;-68
2022/09/07 19:19:34;;;;;;;5.63;1.48;;;;;;;17.81;36.63;100828.63;10290832;28;20499;-68
2022/09/07 19:24:36;;;;;;;10.07;1.63;;;;;;;17.73;36.94;100833.09;10291612;28;20038;-68
2022/09/07 19:29:37;;;;;;;4.10;1.40;;;;;;;17.66;36.02;100826.91;10291107;28;20035;-68
2022/09/07 19:34:42;;;;;;;16.45;2.17;;;;;;;17.58;36.83;100829.75;10291233;28;20062;-68
2022/09/07 19:39:43;;;;;;;9.20;1.20;;;;;;;17.56;36.35;100826.47;10289135;28;20047;-68
2022/09/07 19:44:44;;;;;;;7.38;1.55;;;;;;;17.30;36.70;100798.47;10291778;28;20106;-69
2022/09/07 19:49:44;;;;;;;70.22;30.42;;;;;;;17.14;36.86;100766.63;10291045;28;20129;-69
2022/09/07 19:54:45;;;;;;;19.05;8.23;;;;;;;17.51;36.76;100824.38;10291289;28;20073;-68
2022/09/07 19:59:46;;;;;;;13.07;4.97;;;;;;;17.17;36.69;100766.22;10290855;28;20518;-69
2022/09/07 20:04:47;;;;;;;12.55;2.90;;;;;;;17.45;36.44;100819.81;10291896;28;20046;-69
2022/09/07 20:09:50;;;;;;;5.53;1.95;;;;;;;17.57;36.27;100828.13;10291449;28;20043;-69
2022/09/07 20:14:51;;;;;;;13.05;2.35;;;;;;;17.58;36.07;100827.06;10291612;28;20038;-68
2022/09/07 20:19:52;;;;;;;10.57;2.00;;;;;;;17.63;36.64;100823.81;10291021;28;20048;-68
2022/09/07 20:24:52;;;;;;;10.93;2.08;;;;;;;17.26;36.96;100762.34;10290452;28;20093;-68
2022/09/07 20:29:53;;;;;;;7.90;1.80;;;;;;;17.64;38.09;100823.59;10290940;28;20047;-69
2022/09/07 20:34:55;;;;;;;9.05;2.25;;;;;;;17.57;38.11;100831.63;10289476;28;20142;-68
2022/09/07 20:39:56;;;;;;;9.40;1.98;;;;;;;17.44;38.35;100806.56;10295778;28;20474;-68
2022/09/07 20:44:56;;;;;;;5.80;1.70;;;;;;;17.08;37.59;100745.94;10297839;28;20042;-68
2022/09/07 20:49:57;;;;;;;9.77;1.73;;;;;;;17.33;37.73;100778.47;10297061;28;20045;-69
2022/09/07 20:54:58;;;;;;;9.32;1.80;;;;;;;17.51;37.65;100807.44;10297626;28;20046;-69
2022/09/07 20:59:59;;;;;;;7.15;1.95;;;;;;;17.52;37.48;100814.47;10297065;28;20034;-70
2022/09/07 21:04:59;;;;;;;8.68;1.92;;;;;;;16.74;38.21;100679.72;10297001;28;20089;-70
2022/09/07 21:10:00;;;;;;;8.57;1.40;;;;;;;17.57;38.08;100812.00;10296936;28;20035;-68
2022/09/07 21:15:02;;;;;;;12.65;1.80;;;;;;;17.38;37.83;100783.22;10296505;28;20050;-68
2022/09/07 21:20:04;;;;;;;5.28;1.48;;;;;;;17.52;37.80;100815.28;10296759;28;20046;-68
2022/09/07 21:25:05;;;;;;;4.13;1.38;;;;;;;17.49;38.34;100807.63;10296840;28;20035;-68
2022/09/07 21:30:07;;;;;;;11.90;1.85;;;;;;;17.49;39.38;100809.50;10295546;28;20042;-67
2022/09/07 21:35:09;;;;;;;8.27;1.92;;;;;;;17.47;38.38;100817.75;10296013;28;20467;-68
2022/09/07 21:40:10;;;;;;;4.82;1.27;;;;;;;17.47;38.64;100814.22;10296073;28;20422;-68
2022/09/07 21:45:10;;;;;;;4.07;1.30;;;;;;;16.89;38.64;100720.69;10296569;28;20482;-70
2022/09/07 21:50:11;;;;;;;9.52;2.00;;;;;;;17.22;39.64;100797.81;10295028;28;20035;-68
2022/09/07 21:55:12;;;;;;;7.65;2.20;;;;;;;17.13;40.19;100817.81;10295543;28;20042;-68
2022/09/07 22:00:13;;;;;;;5.40;2.08;;;;;;;16.71;41.65;100790.94;10296189;28;20502;-70
2022/09/07 22:05:14;;;;;;;7.47;2.38;;;;;;;16.58;41.38;100801.59;10295414;28;20035;-67
2022/09/07 22:10:15;;;;;;;9.52;3.30;;;;;;;16.16;41.50;100749.75;10295117;28;20039;-67
2022/09/07 22:15:16;;;;;;;27.50;4.93;;;;;;;16.47;41.50;100810.16;10294888;28;20558;-68
2022/09/07 22:20:16;;;;;;;14.85;5.57;;;;;;;15.88;41.05;100726.41;10295031;28;20042;-67
2022/09/07 22:25:17;;;;;;;19.58;6.65;;;;;;;15.82;40.90;100726.34;10292985;28;20125;-67
2022/09/07 22:30:18;;;;;;;21.35;7.47;;;;;;;15.84;41.01;100749.25;10293692;28;20050;-68
2022/09/07 22:35:20;;;;;;;28.73;8.38;;;;;;;16.13;40.91;100791.16;10294168;28;20067;-68
2022/09/07 22:40:20;;;;;;;21.60;7.50;;;;;;;16.09;41.13;100789.03;10293972;28;20051;-68
2022/09/07 22:45:21;;;;;;;26.20;7.05;;;;;;;16.03;41.90;100789.81;10293559;28;20039;-69
2022/09/07 22:50:22;;;;;;;22.27;6.55;;;;;;;15.91;41.78;100794.84;10293129;28;20047;-68
2022/09/07 22:55:23;;;;;;;17.52;6.35;;;;;;;15.90;42.38;100794.03;10292364;28;20066;-68
2022/09/07 23:00:24;;;;;;;17.63;5.35;;;;;;;15.73;42.54;100765.84;10292921;28;20137;-68
2022/09/07 23:05:24;;;;;;;12.70;4.75;;;;;;;15.87;43.25;100793.59;10293535;28;20047;-68
2022/09/07 23:10:25;;;;;;;13.85;4.82;;;;;;;15.56;43.75;100754.53;10292783;28;20043;-68